createdAt,value
2022-09-07T00:02:14.957Z,40.49
2022-09-07T00:04:43.246Z,42.30
2022-09-07T00:07:11.641Z,41.39
2022-09-07T00:09:39.784Z,38.62
2022-09-07T00:12:08.303Z,38.27
2022-09-07T00:14:36.513Z,41.53
2022-09-07T00:17:04.432Z,38.03
2022-09-07T00:19:32.383Z,38.68
2022-09-07T00:22:00.410Z,38.11
2022-09-07T00:24:28.789Z,39.65
2022-09-07T00:26:57.085Z,43.16
2022-09-07T00:29:25.342Z,38.73
2022-09-07T00:31:54.083Z,43.08
2022-09-07T00:34:22.429Z,38.99
2022-09-07T00:36:50.239Z,37.67
2022-09-07T00:39:18.597Z,40.23
2022-09-07T00:41:46.640Z,42.41
2022-09-07T00:45:06.365Z,39.17
2022-09-07T00:48:00.797Z,44.95
2022-09-07T00:50:52.192Z,45.95
2022-09-07T00:53:55.368Z,43.26
2022-09-07T00:56:28.607Z,46.99
2022-09-07T00:58:56.930Z,50.08
2022-09-07T01:01:25.977Z,49.51
2022-09-07T01:03:57.745Z,46.04
2022-09-07T01:06:33.794Z,43.99
2022-09-07T01:09:13.429Z,50.36
2022-09-07T01:11:45.584Z,44.89
2022-09-07T01:14:15.816Z,44.27
2022-09-07T01:17:14.021Z,51.48
2022-09-07T01:20:32.528Z,48.42
2022-09-07T01:23:41.444Z,50.98
2022-09-07T01:27:02.720Z,57.40
2022-09-07T01:30:11.549Z,58.38
2022-09-07T01:33:18.504Z,61.84
2022-09-07T01:36:24.253Z,66.11
2022-09-07T01:39:02.991Z,73.67
2022-09-07T01:41:57.934Z,75.73
2022-09-07T01:44:54.530Z,73.75
2022-09-07T01:47:35.806Z,73.16
2022-09-07T01:50:20.755Z,74.69
2022-09-07T01:53:11.535Z,72.38
2022-09-07T01:56:09.475Z,73.27
2022-09-07T01:58:56.890Z,73.38
2022-09-07T02:01:45.234Z,74.11
2022-09-07T02:04:27.678Z,72.30
2022-09-07T02:07:20.904Z,71.21
2022-09-07T02:10:14.397Z,72.01
2022-09-07T02:13:12.944Z,70.75
2022-09-07T02:15:59.952Z,70.12
2022-09-07T02:18:41.645Z,75.86
2022-09-07T02:26:54.414Z,69.95
2022-09-07T02:29:22.590Z,66.48
2022-09-07T02:31:52.132Z,66.99
2022-09-07T02:34:20.442Z,66.43
2022-09-07T02:36:50.325Z,66.00
2022-09-07T02:39:19.123Z,69.10
2022-09-07T02:41:47.408Z,67.54
2022-09-07T02:44:32.441Z,70.16
2022-09-07T02:47:49.958Z,77.13
2022-09-07T02:50:58.620Z,76.38
2022-09-07T02:54:01.750Z,74.52
2022-09-07T02:56:42.414Z,71.38
2022-09-07T02:59:44.842Z,70.38
2022-09-07T03:02:28.736Z,67.06
2022-09-07T03:05:12.986Z,63.88
2022-09-07T03:08:01.282Z,59.67
2022-09-07T03:10:30.007Z,59.30
2022-09-07T03:12:58.406Z,60.82
2022-09-07T03:15:28.283Z,59.88
2022-09-07T03:17:56.807Z,62.29
2022-09-07T03:20:25.077Z,65.98
2022-09-07T03:22:53.539Z,66.77
2022-09-07T03:25:23.020Z,67.55
2022-09-07T03:27:51.332Z,69.32
2022-09-07T03:30:19.713Z,70.09
2022-09-07T03:32:47.910Z,64.29
2022-09-07T03:35:16.368Z,62.38
2022-09-07T03:37:44.625Z,72.39
2022-09-07T03:40:15.886Z,73.04
2022-09-07T03:42:48.335Z,68.57
2022-09-07T03:45:17.019Z,67.60
2022-09-07T03:47:45.483Z,68.77
2022-09-07T03:50:13.891Z,70.18
2022-09-07T03:52:42.189Z,65.73
2022-09-07T03:55:10.327Z,71.17
2022-09-07T03:57:40.229Z,64.22
2022-09-07T04:00:09.344Z,60.25
2022-09-07T04:02:43.699Z,64.71
2022-09-07T04:05:11.987Z,63.68
2022-09-07T04:07:40.191Z,59.15
2022-09-07T04:10:08.963Z,57.62
2022-09-07T04:12:37.223Z,56.70
2022-09-07T04:15:05.835Z,56.13
2022-09-07T04:17:34.054Z,56.46
2022-09-07T04:20:04.737Z,56.84
2022-09-07T04:22:33.177Z,57.75
2022-09-07T04:25:01.170Z,57.22
2022-09-07T04:27:29.679Z,58.83
2022-09-07T04:29:57.520Z,71.34
2022-09-07T04:32:25.934Z,63.58
2022-09-07T04:34:54.397Z,67.77
2022-09-07T04:37:22.700Z,60.32
2022-09-07T04:39:51.888Z,58.89
2022-09-07T04:42:20.567Z,71.81
2022-09-07T04:44:51.674Z,63.69
2022-09-07T04:47:20.434Z,66.52
2022-09-07T04:49:52.680Z,70.55
2022-09-07T04:52:20.999Z,70.83
2022-09-07T04:54:50.708Z,73.14
2022-09-07T04:57:25.721Z,68.65
2022-09-07T04:59:54.921Z,70.28
2022-09-07T05:02:22.860Z,73.08
2022-09-07T05:04:51.330Z,72.96
2022-09-07T05:07:19.567Z,72.73
2022-09-07T05:09:48.218Z,72.08
2022-09-07T05:12:16.458Z,72.09
2022-09-07T05:14:44.799Z,70.23
2022-09-07T05:17:12.635Z,63.87
2022-09-07T05:19:40.993Z,61.80
2022-09-07T05:22:08.878Z,63.22
2022-09-07T05:24:37.385Z,61.31
2022-09-07T05:27:05.708Z,63.01
2022-09-07T05:32:22.440Z,57.91
2022-09-07T05:34:52.849Z,58.23
2022-09-07T05:37:21.373Z,61.15
2022-09-07T05:39:52.376Z,59.87
2022-09-07T05:42:20.295Z,63.23
2022-09-07T05:44:48.622Z,64.17
2022-09-07T05:47:16.856Z,61.63
2022-09-07T05:49:44.939Z,64.75
2022-09-07T05:52:13.372Z,63.28
2022-09-07T05:54:41.650Z,64.18
2022-09-07T05:57:12.565Z,62.43
2022-09-07T05:59:40.984Z,59.14
2022-09-07T06:02:14.956Z,62.59
2022-09-07T06:04:44.003Z,59.92
2022-09-07T06:07:28.499Z,65.67
2022-09-07T06:12:49.265Z,63.50
2022-09-07T06:15:18.331Z,65.94
2022-09-07T06:17:46.233Z,60.94
2022-09-07T06:20:14.624Z,58.73
2022-09-07T06:22:42.917Z,60.11
2022-09-07T06:25:11.189Z,60.77
2022-09-07T06:27:39.474Z,64.85
2022-09-07T06:30:08.462Z,64.20
2022-09-07T06:32:45.719Z,63.58
2022-09-07T06:35:15.649Z,61.68
2022-09-07T06:37:44.407Z,62.02
2022-09-07T06:40:12.914Z,60.58
2022-09-07T06:42:41.281Z,61.31
2022-09-07T06:45:11.879Z,59.97
2022-09-07T06:47:40.851Z,58.88
2022-09-07T06:50:09.989Z,67.17
2022-09-07T06:55:28.138Z,65.97
2022-09-07T06:57:56.688Z,64.16
2022-09-07T07:00:25.102Z,63.24
2022-09-07T07:02:53.496Z,59.88
2022-09-07T07:05:21.736Z,62.53
2022-09-07T07:07:49.583Z,59.83
2022-09-07T07:10:22.151Z,64.14
2022-09-07T07:12:57.447Z,69.87
2022-09-07T07:15:28.520Z,62.54
2022-09-07T07:18:02.576Z,68.80
2022-09-07T07:20:39.193Z,67.38
2022-09-07T07:23:07.807Z,61.53
2022-09-07T07:25:36.574Z,59.18
2022-09-07T07:30:59.617Z,65.07
2022-09-07T07:33:36.368Z,60.69
2022-09-07T07:36:25.367Z,61.99
2022-09-07T07:44:20.557Z,58.77
2022-09-07T07:46:50.871Z,61.80
2022-09-07T07:49:19.875Z,63.41
2022-09-07T07:54:39.159Z,67.03
2022-09-07T07:57:07.703Z,66.30
2022-09-07T07:59:36.091Z,64.53
2022-09-07T08:02:15.005Z,63.25
2022-09-07T08:04:43.543Z,63.02
2022-09-07T08:07:12.800Z,62.90
2022-09-07T08:09:44.112Z,59.83
2022-09-07T08:12:19.521Z,60.71
2022-09-07T08:14:48.445Z,58.31
2022-09-07T08:17:17.692Z,58.63
2022-09-07T08:19:46.052Z,57.74
2022-09-07T08:22:13.875Z,60.13
2022-09-07T08:24:41.790Z,63.24
2022-09-07T08:27:09.761Z,63.10
2022-09-07T08:29:38.332Z,62.41
2022-09-07T08:32:07.191Z,58.89
2022-09-07T08:34:38.320Z,64.31
2022-09-07T08:37:06.487Z,59.45
2022-09-07T08:39:35.772Z,57.76
2022-09-07T08:42:40.623Z,58.49
2022-09-07T08:45:30.823Z,61.18
2022-09-07T08:47:59.536Z,61.62
2022-09-07T08:50:50.004Z,61.45
2022-09-07T08:53:19.624Z,60.07
2022-09-07T08:56:21.247Z,61.20
2022-09-07T08:58:53.924Z,62.65
2022-09-07T09:01:42.492Z,62.96
2022-09-07T09:04:25.002Z,62.17
2022-09-07T09:07:35.961Z,60.88
2022-09-07T09:10:39.288Z,59.24
2022-09-07T09:13:13.171Z,61.59
2022-09-07T09:16:05.132Z,60.61
2022-09-07T09:18:52.410Z,57.67
2022-09-07T09:21:26.969Z,59.64
2022-09-07T09:24:10.383Z,59.73
2022-09-07T09:26:40.474Z,60.17
2022-09-07T09:29:19.361Z,59.33
2022-09-07T09:31:47.992Z,60.87
2022-09-07T09:34:25.548Z,60.91
2022-09-07T09:36:57.035Z,60.72
2022-09-07T09:39:37.470Z,60.62
2022-09-07T09:42:23.763Z,60.69
2022-09-07T09:44:51.857Z,59.96
2022-09-07T09:47:35.805Z,59.77
2022-09-07T09:53:07.988Z,58.00
2022-09-07T09:55:37.970Z,58.15
2022-09-07T10:01:35.984Z,58.89
2022-09-07T10:04:25.179Z,57.81
2022-09-07T10:06:57.937Z,56.60
2022-09-07T10:09:51.383Z,55.11
2022-09-07T10:12:34.770Z,55.30
2022-09-07T10:15:07.846Z,54.37
2022-09-07T10:17:41.965Z,54.44
2022-09-07T10:20:21.504Z,55.20
2022-09-07T10:22:52.209Z,54.74
2022-09-07T10:25:40.896Z,55.58
2022-09-07T10:28:12.608Z,56.13
2022-09-07T10:31:01.221Z,54.59
2022-09-07T10:36:51.450Z,54.39
2022-09-07T10:39:36.011Z,53.06
2022-09-07T10:42:09.578Z,52.48
2022-09-07T10:45:20.452Z,51.61
2022-09-07T10:48:28.887Z,53.56
2022-09-07T10:51:10.023Z,52.90
2022-09-07T10:57:41.599Z,54.29
2022-09-07T11:00:13.461Z,52.64
2022-09-07T11:03:27.937Z,52.23
2022-09-07T11:06:22.793Z,53.31
2022-09-07T11:09:19.882Z,53.61
2022-09-07T11:12:27.988Z,52.44
2022-09-07T11:15:25.372Z,51.68
2022-09-07T11:18:03.821Z,52.00
2022-09-07T11:20:44.240Z,52.18
2022-09-07T11:23:46.614Z,51.50
2022-09-07T11:26:39.901Z,52.48
2022-09-07T11:29:36.488Z,53.47
2022-09-07T11:32:24.739Z,52.31
2022-09-07T11:35:23.133Z,52.18
2022-09-07T11:38:01.401Z,52.51
2022-09-07T11:40:37.453Z,52.03
2022-09-07T11:43:34.204Z,52.07
2022-09-07T11:46:16.010Z,52.95
2022-09-07T11:48:53.084Z,53.11
2022-09-07T11:51:45.761Z,52.94
2022-09-07T11:54:45.267Z,52.13
2022-09-07T11:57:39.855Z,53.24
2022-09-07T12:00:27.753Z,52.61
2022-09-07T12:04:00.820Z,54.24
2022-09-07T12:07:28.430Z,52.46
2022-09-07T12:10:51.539Z,52.61
2022-09-07T12:13:46.880Z,53.59
2022-09-07T12:16:47.914Z,54.45
2022-09-07T12:19:20.671Z,55.76
2022-09-07T12:21:59.967Z,56.04
2022-09-07T12:24:51.484Z,56.38
2022-09-07T12:27:22.375Z,56.29
2022-09-07T12:30:11.896Z,56.10
2022-09-07T12:32:57.903Z,57.01
2022-09-07T12:35:42.681Z,56.64
2022-09-07T12:38:13.706Z,56.86
2022-09-07T12:41:00.182Z,57.29
2022-09-07T12:43:28.291Z,57.00
2022-09-07T12:45:56.616Z,57.14
2022-09-07T12:48:47.900Z,57.61
2022-09-07T12:55:04.485Z,57.73
2022-09-07T12:58:20.755Z,55.83
2022-09-07T13:01:09.475Z,54.45
2022-09-07T13:04:03.336Z,54.60
2022-09-07T13:07:10.058Z,54.43
2022-09-07T13:09:42.326Z,55.35
2022-09-07T13:15:51.068Z,53.00
2022-09-07T13:18:28.443Z,51.79
2022-09-07T13:21:36.679Z,51.03
2022-09-07T13:27:26.053Z,49.80
2022-09-07T13:30:15.307Z,50.19
2022-09-07T13:35:33.734Z,49.28
2022-09-07T13:38:03.825Z,48.55
2022-09-07T13:40:40.001Z,46.86
2022-09-07T13:43:21.098Z,44.24
2022-09-07T13:45:53.098Z,43.18
2022-09-07T13:48:37.655Z,42.97
2022-09-07T13:51:51.393Z,41.81
2022-09-07T13:54:48.692Z,42.19
2022-09-07T13:57:32.950Z,42.33
2022-09-07T14:00:07.376Z,41.22
2022-09-07T14:02:36.476Z,41.02
2022-09-07T14:05:06.632Z,41.62
2022-09-07T14:07:35.049Z,41.31
2022-09-07T14:10:24.890Z,40.97
2022-09-07T14:13:11.896Z,41.73
2022-09-07T14:15:47.174Z,41.25
2022-09-07T14:18:31.268Z,42.22
2022-09-07T14:20:59.551Z,42.69
2022-09-07T14:23:30.958Z,42.72
2022-09-07T14:26:23.510Z,43.22
2022-09-07T14:28:57.278Z,43.78
2022-09-07T14:31:26.069Z,43.74
2022-09-07T14:33:59.112Z,42.46
2022-09-07T14:36:46.156Z,41.20
2022-09-07T14:39:22.314Z,40.42
2022-09-07T14:41:51.498Z,41.27
2022-09-07T14:44:42.945Z,40.27
2022-09-07T14:47:30.802Z,39.89
2022-09-07T14:50:06.223Z,39.79
2022-09-07T14:52:44.112Z,37.83
2022-09-07T14:55:47.100Z,38.61
2022-09-07T14:58:15.235Z,37.98
2022-09-07T15:04:03.077Z,38.70
2022-09-07T15:09:38.284Z,37.62
2022-09-07T15:12:38.133Z,36.95
2022-09-07T15:15:32.844Z,37.16
2022-09-07T15:18:26.923Z,38.17
2022-09-07T15:20:55.328Z,37.45
2022-09-07T15:23:23.623Z,37.16
2022-09-07T15:25:53.930Z,38.90
2022-09-07T15:34:19.064Z,36.79
2022-09-07T15:36:50.818Z,35.77
2022-09-07T15:39:27.456Z,36.41
2022-09-07T15:41:55.997Z,100.00
2022-09-07T15:44:26.484Z,100.00
2022-09-07T15:49:50.348Z,39.79
2022-09-07T15:52:19.696Z,100.00
2022-09-07T15:54:48.532Z,40.32
2022-09-07T16:00:07.046Z,100.00
2022-09-07T16:05:31.225Z,100.00
2022-09-07T16:11:05.433Z,37.37
2022-09-07T16:13:34.782Z,37.73
2022-09-07T16:16:06.360Z,37.71
2022-09-07T16:18:35.284Z,37.49
2022-09-07T16:21:13.197Z,37.40
2022-09-07T16:23:47.826Z,37.57
2022-09-07T16:26:20.741Z,37.17
2022-09-07T16:28:51.538Z,37.50
2022-09-07T16:31:26.851Z,37.00
2022-09-07T16:33:55.883Z,36.20
2022-09-07T16:36:24.077Z,36.80
2022-09-07T16:39:00.319Z,38.69
2022-09-07T16:41:31.655Z,38.41
2022-09-07T16:44:00.340Z,38.38
2022-09-07T16:46:35.238Z,38.49
2022-09-07T16:49:04.256Z,39.27
2022-09-07T16:51:32.648Z,39.16
2022-09-07T16:54:01.198Z,40.76
2022-09-07T16:56:35.650Z,41.97
2022-09-07T16:59:09.537Z,42.12
2022-09-07T17:01:38.223Z,41.19
2022-09-07T17:04:10.656Z,42.12
2022-09-07T17:06:40.392Z,42.59
2022-09-07T17:09:08.755Z,43.83
2022-09-07T17:11:37.412Z,44.71
2022-09-07T17:14:07.055Z,44.61
2022-09-07T17:16:39.214Z,44.13
2022-09-07T17:21:59.879Z,44.39
2022-09-07T17:24:28.000Z,45.40
2022-09-07T17:26:55.978Z,45.21
2022-09-07T17:29:24.397Z,44.08
2022-09-07T17:34:40.729Z,44.22
2022-09-07T17:37:10.062Z,42.59
2022-09-07T17:39:38.823Z,42.14
2022-09-07T17:42:07.238Z,41.93
2022-09-07T17:44:38.037Z,41.90
2022-09-07T17:47:06.466Z,45.14
2022-09-07T17:49:34.839Z,43.84
2022-09-07T17:52:02.772Z,46.52
2022-09-07T17:54:31.886Z,47.06
2022-09-07T17:57:00.112Z,43.70
2022-09-07T18:02:16.909Z,42.78
2022-09-07T18:04:45.495Z,42.40
2022-09-07T18:07:13.720Z,42.35
2022-09-07T18:09:41.905Z,42.45
2022-09-07T18:12:10.093Z,42.37
2022-09-07T18:14:38.369Z,42.31
2022-09-07T18:17:08.213Z,45.71
2022-09-07T18:19:36.507Z,45.49
2022-09-07T18:22:09.478Z,45.21
2022-09-07T18:24:37.797Z,43.94
2022-09-07T18:27:06.327Z,43.32
2022-09-07T18:29:34.829Z,42.95
2022-09-07T18:32:08.677Z,43.06
2022-09-07T18:34:40.712Z,43.66
2022-09-07T18:37:11.920Z,43.25
2022-09-07T18:39:40.844Z,43.50
2022-09-07T18:42:09.458Z,43.31
2022-09-07T18:47:29.410Z,42.83
2022-09-07T18:49:57.879Z,43.15
2022-09-07T18:55:16.354Z,43.21
2022-09-07T18:57:44.929Z,43.07
2022-09-07T19:00:14.249Z,43.08
2022-09-07T19:02:42.328Z,43.87
2022-09-07T19:07:59.616Z,44.12
2022-09-07T19:10:27.663Z,43.77
2022-09-07T19:12:56.803Z,43.36
2022-09-07T19:15:24.740Z,43.80
2022-09-07T19:17:52.645Z,44.60
2022-09-07T19:20:20.706Z,44.42
2022-09-07T19:22:48.714Z,43.42
2022-09-07T19:25:17.291Z,43.39
2022-09-07T19:27:46.231Z,43.19
2022-09-07T19:30:15.450Z,42.85
2022-09-07T19:32:43.650Z,43.03
2022-09-07T19:35:11.552Z,43.97
2022-09-07T19:37:39.892Z,43.37
2022-09-07T19:40:11.978Z,43.59
2022-09-07T19:42:41.621Z,43.36
2022-09-07T19:45:09.948Z,43.39
2022-09-07T19:47:38.277Z,43.37
2022-09-07T19:50:06.598Z,43.50
2022-09-07T19:52:35.230Z,43.73
2022-09-07T19:55:03.936Z,44.17
2022-09-07T19:57:31.951Z,43.63
2022-09-07T20:00:00.365Z,43.65
2022-09-07T20:02:28.297Z,43.95
2022-09-07T20:04:56.225Z,43.82
2022-09-07T20:07:24.116Z,43.96
2022-09-07T20:09:53.008Z,48.01
2022-09-07T20:12:20.805Z,44.54
2022-09-07T20:14:48.687Z,43.81
2022-09-07T20:17:16.572Z,43.34
2022-09-07T20:19:44.471Z,43.38
2022-09-07T20:22:12.398Z,45.64
2022-09-07T20:24:40.383Z,44.47
2022-09-07T20:27:08.468Z,43.75
2022-09-07T20:29:36.669Z,44.37
2022-09-07T20:32:04.776Z,43.93
2022-09-07T20:34:33.375Z,43.68
2022-09-07T20:37:01.993Z,44.49
2022-09-07T20:39:30.336Z,43.87
2022-09-07T20:41:58.272Z,43.64
2022-09-07T20:44:26.821Z,43.54
2022-09-07T20:46:55.472Z,44.87
2022-09-07T20:49:23.703Z,45.13
2022-09-07T20:51:52.007Z,44.46
2022-09-07T20:54:20.431Z,44.61
2022-09-07T20:56:48.930Z,44.94
2022-09-07T20:59:17.170Z,46.10
2022-09-07T21:01:46.520Z,54.32
2022-09-07T21:04:14.860Z,47.99
2022-09-07T21:06:43.370Z,55.34
2022-09-07T21:09:11.887Z,59.04
2022-09-07T21:11:43.466Z,57.14
2022-09-07T21:14:14.418Z,50.50
2022-09-07T21:16:42.667Z,48.24
2022-09-07T21:19:11.098Z,47.61
2022-09-07T21:21:42.360Z,46.69
2022-09-07T21:24:22.606Z,46.50
2022-09-07T21:26:51.684Z,46.29
2022-09-07T21:29:23.668Z,47.32
2022-09-07T21:31:55.043Z,46.90
2022-09-07T21:34:23.517Z,47.23
2022-09-07T21:36:52.243Z,48.49
2022-09-07T21:39:21.359Z,47.10
2022-09-07T21:41:49.546Z,46.35
2022-09-07T21:44:17.911Z,45.54
2022-09-07T21:46:46.151Z,45.50
2022-09-07T21:49:14.484Z,44.79
2022-09-07T21:51:42.641Z,44.87
2022-09-07T21:54:10.836Z,44.65
2022-09-07T21:56:42.088Z,44.44
2022-09-07T21:59:14.347Z,44.18
2022-09-07T22:01:42.612Z,44.47
2022-09-07T22:04:10.840Z,44.18
2022-09-07T22:06:39.838Z,43.85
2022-09-07T22:09:08.212Z,43.92
2022-09-07T22:11:36.454Z,44.90
2022-09-07T22:14:05.741Z,44.54
2022-09-07T22:16:35.409Z,44.14
2022-09-07T22:19:06.367Z,44.11
2022-09-07T22:21:34.188Z,43.82
2022-09-07T22:24:06.048Z,44.51
2022-09-07T22:26:40.001Z,44.37
2022-09-07T22:29:10.906Z,44.03
2022-09-07T22:31:39.831Z,43.87
2022-09-07T22:34:09.313Z,44.17
2022-09-07T22:36:43.882Z,44.81
2022-09-07T22:39:18.753Z,44.93
2022-09-07T22:41:47.704Z,44.57
2022-09-07T22:44:18.474Z,44.65
2022-09-07T22:46:47.544Z,44.56
2022-09-07T22:49:16.875Z,44.71
2022-09-07T22:51:45.421Z,44.71
2022-09-07T22:54:13.963Z,44.54
2022-09-07T22:56:42.201Z,46.24
2022-09-07T22:59:10.863Z,45.44
2022-09-07T23:01:39.434Z,45.00
2022-09-07T23:04:08.282Z,45.68
2022-09-07T23:06:41.632Z,45.82
2022-09-07T23:09:14.644Z,45.03
2022-09-07T23:11:44.739Z,44.83
2022-09-07T23:14:21.932Z,44.90
2022-09-07T23:16:50.869Z,45.56
2022-09-07T23:19:20.273Z,46.30
2022-09-07T23:21:48.982Z,45.40
2022-09-07T23:24:19.078Z,45.09
2022-09-07T23:26:47.940Z,44.53
2022-09-07T23:29:16.429Z,45.29
2022-09-07T23:31:46.914Z,45.46
2022-09-07T23:34:15.197Z,45.04
2022-09-07T23:36:43.403Z,44.74
2022-09-07T23:39:13.603Z,44.85
2022-09-07T23:41:41.779Z,44.60
2022-09-07T23:44:09.951Z,44.74
2022-09-07T23:46:38.266Z,44.82
2022-09-07T23:49:06.554Z,44.80
2022-09-07T23:51:34.809Z,46.45
2022-09-07T23:54:03.102Z,47.03
2022-09-07T23:56:32.529Z,49.68
2022-09-07T23:59:00.812Z,47.08
